createdAt,value
2019-04-14T00:00:38.943Z,0
2019-04-14T00:03:49.820Z,0
2019-04-14T00:07:01.428Z,0
2019-04-14T00:10:12.081Z,0
2019-04-14T00:13:22.354Z,0
2019-04-14T00:16:33.452Z,0
2019-04-14T00:19:43.436Z,0
2019-04-14T00:22:54.007Z,0
2019-04-14T00:26:03.648Z,0
2019-04-14T00:29:15.180Z,0
2019-04-14T00:32:26.838Z,0
2019-04-14T00:35:40.623Z,0
2019-04-14T00:38:50.681Z,0
2019-04-14T00:42:10.381Z,0
2019-04-14T00:45:48.808Z,0
2019-04-14T00:49:13.591Z,0
2019-04-14T00:52:25.413Z,0
2019-04-14T00:55:36.356Z,0
2019-04-14T00:58:45.942Z,0
2019-04-14T01:01:56.934Z,0
2019-04-14T01:05:08.905Z,0
2019-04-14T01:08:19.145Z,0
2019-04-14T01:11:29.739Z,0
2019-04-14T01:14:40.872Z,0
2019-04-14T01:17:51.361Z,0
2019-04-14T01:21:02.487Z,0
2019-04-14T01:24:12.694Z,0
2019-04-14T01:27:23.372Z,0
2019-04-14T01:30:33.424Z,0
2019-04-14T01:33:44.392Z,0
2019-04-14T01:36:56.099Z,0
2019-04-14T01:40:07.527Z,0
2019-04-14T01:43:18.886Z,0
2019-04-14T01:46:39.071Z,0
2019-04-14T01:49:49.336Z,0
2019-04-14T01:52:59.504Z,0
2019-04-14T01:56:10.799Z,0
2019-04-14T01:59:21.941Z,0
2019-04-14T02:02:32.105Z,0
2019-04-14T02:05:42.910Z,0
2019-04-14T02:08:54.569Z,0
2019-04-14T02:12:04.473Z,0
2019-04-14T02:15:15.458Z,0
2019-04-14T02:18:27.233Z,0
2019-04-14T02:21:38.844Z,0
2019-04-14T02:24:50.292Z,0
2019-04-14T02:28:00.760Z,0
2019-04-14T02:34:15.318Z,0
2019-04-14T02:43:37.357Z,0
2019-04-14T03:00:57.964Z,0
2019-04-14T03:20:04.648Z,0
2019-04-14T03:29:14.503Z,0
2019-04-14T03:48:52.168Z,0.1
2019-04-14T03:55:49.002Z,0.2
2019-04-14T03:59:25.968Z,0.3
2019-04-14T04:02:36.505Z,0.4
2019-04-14T04:05:46.268Z,0.5
2019-04-14T04:08:55.830Z,0.8
2019-04-14T04:12:10.274Z,0.9
2019-04-14T04:15:19.921Z,1.1
2019-04-14T04:18:30.882Z,1.3
2019-04-14T04:22:19.914Z,1.7
2019-04-14T04:25:29.626Z,2.1
2019-04-14T04:28:40.627Z,2.8
2019-04-14T04:31:51.016Z,4.4
2019-04-14T04:35:02.181Z,5.1
2019-04-14T04:38:12.394Z,7.4
2019-04-14T04:41:23.219Z,10.3
2019-04-14T04:44:34.147Z,13.2
2019-04-14T04:47:44.788Z,21.4
2019-04-14T04:50:54.872Z,33.5
2019-04-14T04:54:04.528Z,23.8
2019-04-14T04:57:13.946Z,28.8
2019-04-14T05:00:25.018Z,44.3
2019-04-14T05:03:36.070Z,318.2
2019-04-14T05:06:48.224Z,377.3
2019-04-14T05:09:59.834Z,361.4
2019-04-14T05:13:12.361Z,129.6
2019-04-14T05:16:22.078Z,37.6
2019-04-14T05:19:45.348Z,51.5
2019-04-14T05:22:55.608Z,190.1
2019-04-14T05:26:05.567Z,124.6
2019-04-14T05:29:16.657Z,24.8
2019-04-14T05:32:26.811Z,28.3
2019-04-14T05:35:37.999Z,43.9
2019-04-14T05:38:47.976Z,51.8
2019-04-14T05:42:28.652Z,49
2019-04-14T05:45:40.198Z,48.2
2019-04-14T05:48:49.811Z,75.2
2019-04-14T05:52:01.944Z,126
2019-04-14T05:55:16.204Z,88.2
2019-04-14T05:58:25.958Z,28.1
2019-04-14T06:01:36.559Z,38.7
2019-04-14T06:04:46.680Z,48.6
2019-04-14T06:07:57.334Z,32.2
2019-04-14T06:11:03.217Z,35.3
2019-04-14T06:14:09.267Z,29
2019-04-14T06:17:15.218Z,35.8
2019-04-14T06:20:21.193Z,41.4
2019-04-14T06:23:27.063Z,31.9
2019-04-14T06:26:33.007Z,34.9
2019-04-14T06:29:38.958Z,31.3
2019-04-14T06:32:44.920Z,92.2
2019-04-14T06:35:50.890Z,73.4
2019-04-14T06:38:56.836Z,69.5
2019-04-14T06:42:02.907Z,49.3
2019-04-14T06:45:08.771Z,77.4
2019-04-14T06:48:14.723Z,36.9
2019-04-14T06:51:20.695Z,32.8
2019-04-14T06:54:26.747Z,43
2019-04-14T06:57:32.651Z,32.6
2019-04-14T07:00:38.882Z,35.8
2019-04-14T07:03:44.769Z,36.7
2019-04-14T07:06:53.224Z,27.9
2019-04-14T07:09:59.213Z,29
2019-04-14T07:13:05.107Z,30.6
2019-04-14T07:16:11.115Z,28.3
2019-04-14T07:19:17.076Z,26.8
2019-04-14T07:22:23.165Z,33.7
2019-04-14T07:25:29.139Z,77.4
2019-04-14T07:28:35.067Z,37.6
2019-04-14T07:31:41.025Z,24.5
2019-04-14T07:34:47.031Z,22.5
2019-04-14T07:37:53.053Z,22.8
2019-04-14T07:40:58.915Z,23.2
2019-04-14T07:44:04.871Z,24.3
2019-04-14T07:47:10.742Z,28.3
2019-04-14T07:50:18.128Z,33.5
2019-04-14T07:53:24.079Z,61.6
2019-04-14T07:56:30.043Z,38.5
2019-04-14T07:59:35.997Z,40
2019-04-14T08:02:41.948Z,34.4
2019-04-14T08:05:47.918Z,37.3
2019-04-14T08:08:53.853Z,37.4
2019-04-14T08:11:59.836Z,38.9
2019-04-14T08:15:05.740Z,31.5
2019-04-14T08:18:11.684Z,50.8
2019-04-14T08:21:17.610Z,30.1
2019-04-14T08:24:23.480Z,53.3
2019-04-14T08:27:29.435Z,51.1
2019-04-14T08:30:35.397Z,44.3
2019-04-14T08:33:41.359Z,33.1
2019-04-14T08:36:47.336Z,29.7
2019-04-14T08:39:53.178Z,38.9
2019-04-14T08:42:59.133Z,38
2019-04-14T08:46:05.003Z,24.8
2019-04-14T08:49:10.956Z,26.8
2019-04-14T08:52:16.963Z,31.1
2019-04-14T08:55:22.977Z,30.8
2019-04-14T08:58:28.911Z,30.1
2019-04-14T09:01:34.897Z,30.1
2019-04-14T09:04:40.957Z,31.5
2019-04-14T09:07:46.874Z,41.8
2019-04-14T09:10:52.773Z,30.1
2019-04-14T09:13:58.838Z,31.7
2019-04-14T09:17:04.909Z,32.4
2019-04-14T09:20:10.868Z,30.2
2019-04-14T09:23:16.818Z,34.7
2019-04-14T09:26:22.779Z,27.7
2019-04-14T09:29:28.833Z,27.4
2019-04-14T09:32:34.907Z,27
2019-04-14T09:35:40.960Z,26.1
2019-04-14T09:38:46.922Z,26.5
2019-04-14T09:41:52.884Z,27.2
2019-04-14T09:44:58.861Z,25.7
2019-04-14T09:48:04.803Z,23.9
2019-04-14T09:51:11.021Z,23
2019-04-14T09:54:17.023Z,22.3
2019-04-14T09:57:22.899Z,22.4
2019-04-14T10:00:29.134Z,23.6
2019-04-14T10:03:35.324Z,26.3
2019-04-14T10:06:44.269Z,29.2
2019-04-14T10:09:50.503Z,30.8
2019-04-14T10:12:56.376Z,37.8
2019-04-14T10:16:02.439Z,30.8
2019-04-14T10:19:08.395Z,27.4
2019-04-14T10:22:14.262Z,26.1
2019-04-14T10:25:20.219Z,25.6
2019-04-14T10:28:26.088Z,27.5
2019-04-14T10:31:32.147Z,27.4
2019-04-14T10:34:38.090Z,33.7
2019-04-14T10:37:44.049Z,25.9
2019-04-14T10:40:50.112Z,39.2
2019-04-14T10:43:56.222Z,28.4
2019-04-14T10:47:02.143Z,25.6
2019-04-14T10:50:08.299Z,26.3
2019-04-14T10:53:14.258Z,27.2
2019-04-14T10:56:20.222Z,26.5
2019-04-14T10:59:26.176Z,25
2019-04-14T11:02:32.155Z,25.2
2019-04-14T11:05:38.691Z,36
2019-04-14T11:08:44.681Z,25.2
2019-04-14T11:11:50.628Z,24.8
2019-04-14T11:14:56.500Z,22.9
2019-04-14T11:18:02.449Z,21.8
2019-04-14T11:21:08.388Z,21.9
2019-04-14T11:24:14.371Z,21.7
2019-04-14T11:27:20.240Z,21.7
2019-04-14T11:30:26.180Z,21.7
2019-04-14T11:33:32.146Z,18.6
2019-04-14T11:36:38.109Z,20.7
2019-04-14T11:39:44.067Z,23.9
2019-04-14T11:42:55.553Z,26.3
2019-04-14T11:46:04.917Z,16
2019-04-14T11:49:10.960Z,14.7
2019-04-14T11:52:16.928Z,21.3
2019-04-14T11:55:22.898Z,28.1
2019-04-14T11:58:31.698Z,28.1
2019-04-14T12:01:37.672Z,28.4
2019-04-14T12:04:43.723Z,28.3
2019-04-14T12:07:49.735Z,28.4
2019-04-14T12:10:55.751Z,28.8
2019-04-14T12:14:01.866Z,27.4
2019-04-14T12:17:07.877Z,14.3
2019-04-14T12:20:13.829Z,16.2
2019-04-14T12:23:19.788Z,26.1
2019-04-14T12:26:25.760Z,30.6
2019-04-14T12:29:34.774Z,26.3
2019-04-14T12:32:42.585Z,32.2
2019-04-14T12:35:48.557Z,20.2
2019-04-14T12:38:54.507Z,16.1
2019-04-14T12:42:00.473Z,16.4
2019-04-14T12:45:06.431Z,19.1
2019-04-14T12:48:12.384Z,32.6
2019-04-14T12:51:21.120Z,16.9
2019-04-14T12:54:27.001Z,29
2019-04-14T12:57:32.928Z,34.6
2019-04-14T13:00:38.985Z,31.7
2019-04-14T13:03:45.357Z,33.3
2019-04-14T13:06:51.227Z,32.6
2019-04-14T13:09:57.181Z,32.4
2019-04-14T13:13:03.141Z,32.4
2019-04-14T13:16:09.093Z,32.9
2019-04-14T13:19:15.054Z,191.5
2019-04-14T13:22:34.478Z,247.7
2019-04-14T13:25:40.488Z,256.3
2019-04-14T13:28:46.875Z,257.8
2019-04-14T13:31:52.876Z,272.2
2019-04-14T13:34:58.711Z,263.5
2019-04-14T13:38:04.640Z,260.6
2019-04-14T13:41:10.520Z,259.2
2019-04-14T13:44:16.608Z,259.2
2019-04-14T13:47:22.488Z,259.2
2019-04-14T13:50:28.475Z,260.6
2019-04-14T13:53:34.440Z,257.8
2019-04-14T13:56:40.325Z,259.2
2019-04-14T13:59:46.255Z,252
2019-04-14T14:02:52.211Z,244.8
2019-04-14T14:05:58.171Z,257.8
2019-04-14T14:09:04.139Z,259.2
2019-04-14T14:12:10.095Z,257.8
2019-04-14T14:15:16.050Z,259.2
2019-04-14T14:18:22.022Z,259.2
2019-04-14T14:21:27.976Z,259.2
2019-04-14T14:24:33.934Z,259.2
2019-04-14T14:27:39.815Z,259.2
2019-04-14T14:30:45.751Z,259.2
2019-04-14T14:33:51.850Z,257.8
2019-04-14T14:36:57.872Z,259.2
2019-04-14T14:40:03.838Z,259.2
2019-04-14T14:43:09.801Z,259.2
2019-04-14T14:46:15.675Z,257.8
2019-04-14T14:49:21.614Z,257.8
2019-04-14T14:52:27.580Z,256.3
2019-04-14T14:55:33.533Z,257.8
2019-04-14T14:58:39.595Z,257.8
2019-04-14T15:01:45.471Z,254.9
2019-04-14T15:04:51.517Z,254.9
2019-04-14T15:07:57.397Z,254.9
2019-04-14T15:11:07.530Z,253.4
2019-04-14T15:14:13.406Z,252
2019-04-14T15:17:22.171Z,250.6
2019-04-14T15:20:28.389Z,250.6
2019-04-14T15:23:34.275Z,250.6
2019-04-14T15:26:40.202Z,250.6
2019-04-14T15:29:46.285Z,237.6
2019-04-14T15:32:52.226Z,249.1
2019-04-14T15:35:58.131Z,7.7
2019-04-14T15:39:04.042Z,7.7
2019-04-14T15:42:10.004Z,7.4
2019-04-14T15:45:17.192Z,6.7
2019-04-14T15:48:23.249Z,6.8
2019-04-14T15:51:29.204Z,6.9
2019-04-14T15:54:35.188Z,6.7
2019-04-14T15:57:41.232Z,6.5
2019-04-14T16:00:47.183Z,6
2019-04-14T16:03:53.162Z,5.7
2019-04-14T16:06:59.112Z,5.5
2019-04-14T16:10:05.066Z,4.9
2019-04-14T16:13:10.967Z,4.3
2019-04-14T16:16:16.984Z,4.1
2019-04-14T16:19:22.944Z,3.9
2019-04-14T16:22:28.923Z,3.6
2019-04-14T16:25:34.794Z,3.5
2019-04-14T16:28:40.744Z,3.2
2019-04-14T16:31:46.684Z,2.8
2019-04-14T16:34:52.641Z,2.5
2019-04-14T16:37:58.697Z,2.1
2019-04-14T16:41:04.625Z,1.7
2019-04-14T16:44:10.691Z,1.4
2019-04-14T16:47:16.586Z,1.1
2019-04-14T16:50:22.555Z,0.9
2019-04-14T16:53:28.506Z,0.6
2019-04-14T16:56:34.546Z,0.4
2019-04-14T16:59:40.524Z,0.3
2019-04-14T17:02:46.499Z,0.2
2019-04-14T17:05:55.583Z,0.2
2019-04-14T17:09:01.537Z,0.1
2019-04-14T17:12:07.446Z,0.1
2019-04-14T17:15:13.406Z,0.1
2019-04-14T17:18:19.467Z,0
2019-04-14T17:21:25.381Z,0
2019-04-14T17:24:31.393Z,0
2019-04-14T17:27:37.339Z,0
2019-04-14T17:30:43.311Z,0
2019-04-14T17:33:49.373Z,0
2019-04-14T17:36:58.281Z,0
2019-04-14T17:40:04.404Z,0
2019-04-14T17:43:10.276Z,0
2019-04-14T17:46:16.557Z,0
2019-04-14T17:49:22.626Z,0
2019-04-14T17:52:28.609Z,0.6
2019-04-14T17:55:35.128Z,0
2019-04-14T17:58:55.333Z,0
2019-04-14T18:02:01.338Z,0
2019-04-14T18:05:07.298Z,0
2019-04-14T18:08:13.254Z,0
2019-04-14T18:11:19.160Z,0
2019-04-14T18:14:25.273Z,0
2019-04-14T18:17:33.900Z,0
2019-04-14T18:20:39.860Z,0
2019-04-14T18:23:45.824Z,0
2019-04-14T18:26:51.683Z,0
2019-04-14T18:29:57.739Z,0
2019-04-14T18:33:03.691Z,0
2019-04-14T18:36:09.568Z,0
2019-04-14T18:39:15.507Z,0
2019-04-14T18:42:21.434Z,0
2019-04-14T18:45:27.331Z,0
2019-04-14T18:48:33.293Z,0
2019-04-14T18:51:39.398Z,0
2019-04-14T18:54:57.546Z,0
2019-04-14T18:58:03.414Z,0
2019-04-14T19:01:09.520Z,0
2019-04-14T19:04:15.478Z,0
2019-04-14T19:07:21.436Z,0
2019-04-14T19:10:27.426Z,0
2019-04-14T19:13:33.293Z,0
2019-04-14T19:16:42.900Z,0
2019-04-14T19:20:03.205Z,0
2019-04-14T19:23:09.157Z,0
2019-04-14T19:26:15.030Z,0
2019-04-14T19:29:21.233Z,0
2019-04-14T19:32:27.237Z,0
2019-04-14T19:35:33.305Z,0
2019-04-14T19:38:39.248Z,0
2019-04-14T19:41:45.321Z,0
2019-04-14T19:44:51.288Z,0
2019-04-14T19:47:57.193Z,0
2019-04-14T19:51:03.208Z,0
2019-04-14T19:54:11.764Z,0
2019-04-14T19:57:17.734Z,0
2019-04-14T20:00:23.845Z,0
2019-04-14T20:03:29.907Z,0
2019-04-14T20:06:36.055Z,0
2019-04-14T20:09:42.031Z,0
2019-04-14T20:12:48.202Z,0
2019-04-14T20:15:54.079Z,0
2019-04-14T20:19:13.430Z,0
2019-04-14T20:22:19.287Z,0
2019-04-14T20:25:36.664Z,0
2019-04-14T20:28:42.858Z,0
2019-04-14T20:31:48.836Z,0
2019-04-14T20:34:54.901Z,0
2019-04-14T20:38:00.863Z,0
2019-04-14T20:41:06.831Z,0
2019-04-14T20:44:12.778Z,0
2019-04-14T20:47:18.842Z,0
2019-04-14T20:50:24.857Z,0
2019-04-14T20:53:30.771Z,0
2019-04-14T20:56:36.735Z,0
2019-04-14T20:59:42.607Z,0
2019-04-14T21:02:48.633Z,0
2019-04-14T21:05:54.857Z,0
2019-04-14T21:09:03.533Z,0
2019-04-14T21:12:09.423Z,0
2019-04-14T21:15:15.350Z,0
2019-04-14T21:18:21.315Z,0
2019-04-14T21:21:27.270Z,0
2019-04-14T21:24:33.227Z,0
2019-04-14T21:27:39.189Z,0
2019-04-14T21:30:45.313Z,0
2019-04-14T21:33:51.323Z,0
2019-04-14T21:36:57.269Z,0
2019-04-14T21:40:03.235Z,0
2019-04-14T21:43:09.196Z,0
2019-04-14T21:46:15.256Z,0
2019-04-14T21:49:21.212Z,0
2019-04-14T21:52:27.176Z,0
2019-04-14T21:55:33.135Z,0
2019-04-14T21:58:41.909Z,0
2019-04-14T22:01:47.864Z,0
2019-04-14T22:04:53.779Z,0
2019-04-14T22:07:59.836Z,0
2019-04-14T22:11:05.714Z,0
2019-04-14T22:14:11.655Z,0
2019-04-14T22:17:17.619Z,0
2019-04-14T22:20:23.626Z,0
2019-04-14T22:23:29.643Z,0
2019-04-14T22:26:35.606Z,0
2019-04-14T22:29:41.558Z,0
2019-04-14T22:32:47.623Z,0
2019-04-14T22:35:53.574Z,0
2019-04-14T22:38:59.535Z,0
2019-04-14T22:42:05.605Z,0
2019-04-14T22:45:11.561Z,0
2019-04-14T22:48:17.523Z,0
2019-04-14T22:51:23.479Z,0
2019-04-14T22:54:29.360Z,0
2019-04-14T22:57:35.297Z,0
2019-04-14T23:00:41.358Z,0
2019-04-14T23:03:47.547Z,0
2019-04-14T23:06:56.052Z,0
2019-04-14T23:10:02.157Z,0
2019-04-14T23:13:08.046Z,0
2019-04-14T23:16:14.027Z,0
2019-04-14T23:19:19.986Z,0
2019-04-14T23:22:25.943Z,0
2019-04-14T23:25:31.906Z,0
2019-04-14T23:28:37.866Z,0
2019-04-14T23:31:43.830Z,0
2019-04-14T23:34:49.793Z,0
2019-04-14T23:37:55.871Z,0
2019-04-14T23:41:01.862Z,0
2019-04-14T23:44:07.762Z,0
2019-04-14T23:47:13.844Z,0
2019-04-14T23:50:19.814Z,0
2019-04-14T23:53:28.561Z,0
2019-04-14T23:56:34.675Z,0
2019-04-14T23:59:40.646Z,0
